Time;durP1;ratioP1;P1;durP2;ratioP2;P2;SDS_P1;SDS_P2;PMS_P1;PMS_P2;Temp;Humidity;BMP_temperature;BMP_pressure;BME280_temperature;BME280_humidity;BME280_pressure;Samples;Min_cycle;Max_cycle;Signal;HPM_P1;HPM_P2
2021/12/13 00:02:28;;;;;;;36.10;17.63;;;11.90;99.90;;;;;;4976809;28;20187;-79
2021/12/13 00:04:56;;;;;;;29.55;17.77;;;12.00;99.90;;;;;;4977900;28;20244;-91
2021/12/13 00:07:26;;;;;;;30.88;18.17;;;12.10;99.90;;;;;;4977489;28;20277;-90
2021/12/13 00:09:53;;;;;;;27.60;18.30;;;12.00;99.90;;;;;;4977462;28;20650;-84
2021/12/13 00:12:28;;;;;;;31.45;17.88;;;12.10;99.90;;;;;;4977096;28;20233;-79
2021/12/13 00:14:56;;;;;;;29.90;18.63;;;12.20;99.90;;;;;;4976196;28;20166;-78
2021/12/13 00:17:28;;;;;;;27.60;17.95;;;12.20;99.90;;;;;;4978170;28;20342;-89
2021/12/13 00:20:13;;;;;;;33.35;19.75;;;12.20;99.90;;;;;;4979048;28;20162;-81
2021/12/13 00:22:44;;;;;;;30.83;18.73;;;12.20;99.90;;;;;;4962437;28;20265;-89
2021/12/13 00:25:16;;;;;;;31.25;18.38;;;12.10;99.90;;;;;;4976988;28;20236;-84
2021/12/13 00:27:48;;;;;;;30.40;18.25;;;12.10;99.90;;;;;;4976712;28;20189;-83
2021/12/13 00:30:29;;;;;;;33.22;20.10;;;12.00;99.90;;;;;;4976714;28;20647;-89
2021/12/13 00:33:19;;;;;;;34.10;19.38;;;12.10;99.90;;;;;;4980284;28;20181;-89
2021/12/13 00:36:01;;;;;;;33.85;18.95;;;12.30;99.90;;;;;;4977144;28;20195;-89
2021/12/13 00:38:30;;;;;;;35.38;19.13;;;12.40;99.90;;;;;;4977284;28;20197;-84
2021/12/13 00:41:10;;;;;;;35.80;20.50;;;12.20;99.90;;;;;;4977024;28;20162;-84
2021/12/13 00:43:42;;;;;;;29.75;18.92;;;12.20;99.90;;;;;;4977179;28;20170;-85
2021/12/13 00:46:11;;;;;;;34.25;18.80;;;12.30;99.90;;;;;;4960039;28;20237;-90
2021/12/13 00:48:39;;;;;;;31.73;18.80;;;12.10;99.90;;;;;;4977752;28;20161;-91
2021/12/13 00:51:27;;;;;;;29.33;18.33;;;12.10;99.90;;;;;;4977432;28;20711;-88
2021/12/13 00:53:56;;;;;;;33.53;18.95;;;12.00;99.90;;;;;;4974193;28;20174;-90
2021/12/13 00:57:03;;;;;;;37.67;19.45;;;12.00;99.90;;;;;;4976371;28;20177;-90
2021/12/13 00:59:57;;;;;;;31.58;18.83;;;12.10;99.90;;;;;;4948346;28;20660;-88
2021/12/13 01:02:28;;;;;;;32.13;17.92;;;12.10;99.90;;;;;;4975523;28;20178;-89
2021/12/13 01:05:09;;;;;;;31.23;17.63;;;12.00;99.90;;;;;;4976786;28;20173;-84
2021/12/13 01:07:58;;;;;;;30.65;18.52;;;11.80;99.90;;;;;;4975816;28;20213;-90
2021/12/13 01:10:39;;;;;;;29.85;17.60;;;11.80;99.90;;;;;;4976146;28;20166;-90
2021/12/13 01:13:25;;;;;;;30.20;17.65;;;11.80;99.90;;;;;;4958905;28;20581;-90
2021/12/13 01:16:14;;;;;;;33.15;19.05;;;11.80;99.90;;;;;;4959014;28;20174;-91
2021/12/13 01:21:42;;;;;;;33.42;18.10;;;11.80;99.90;;;;;;4988895;28;20750;-78
2021/12/13 01:24:30;;;;;;;33.60;18.20;;;11.80;99.90;;;;;;4990160;28;20208;-79
2021/12/13 01:26:56;;;;;;;28.30;17.08;;;11.80;99.90;;;;;;4991651;28;20213;-78
2021/12/13 01:29:27;;;;;;;26.02;17.13;;;12.00;99.90;;;;;;4961917;28;20173;-82
2021/12/13 01:32:00;;;;;;;26.35;16.55;;;11.80;99.90;;;;;;4975542;28;20533;-89
2021/12/13 01:34:29;;;;;;;29.95;17.13;;;11.80;99.90;;;;;;4975606;28;20162;-81
2021/12/13 01:37:15;;;;;;;31.33;16.55;;;11.80;99.90;;;;;;4965966;28;20197;-79
2021/12/13 01:39:48;;;;;;;30.17;17.58;;;11.60;99.90;;;;;;4988018;28;20162;-79
2021/12/13 01:42:20;;;;;;;29.02;16.55;;;11.70;99.90;;;;;;4987109;28;20186;-88
2021/12/13 01:44:56;;;;;;;28.08;16.42;;;11.70;99.90;;;;;;4983008;28;20197;-89
2021/12/13 01:47:27;;;;;;;28.33;16.17;;;11.70;99.90;;;;;;4979166;28;20197;-80
2021/12/13 01:50:01;;;;;;;23.08;15.07;;;11.80;99.90;;;;;;4981444;28;20173;-81
2021/12/13 01:52:31;;;;;;;25.40;15.63;;;11.80;99.90;;;;;;4982144;28;20184;-90
2021/12/13 01:55:01;;;;;;;30.02;16.60;;;12.00;99.90;;;;;;4981330;28;20162;-89
2021/12/13 01:57:40;;;;;;;30.42;17.23;;;11.90;99.90;;;;;;4966563;28;20197;-84
2021/12/13 02:01:08;;;;;;;26.65;16.63;;;11.90;99.90;;;;;;4984362;28;20269;-86
2021/12/13 02:03:21;;;;;;;25.63;15.95;;;11.90;99.90;;;;;;4984566;28;20177;-82
2021/12/13 02:05:49;;;;;;;26.85;15.02;;;11.80;99.90;;;;;;4975840;28;20201;-87
2021/12/13 02:08:20;;;;;;;24.13;15.75;;;11.80;99.90;;;;;;4975314;28;20190;-85
2021/12/13 02:10:50;;;;;;;24.25;16.02;;;12.00;99.90;;;;;;4975017;28;20204;-90
2021/12/13 02:13:21;;;;;;;25.83;15.75;;;11.80;99.90;;;;;;4975089;28;20185;-91
2021/12/13 02:18:37;;;;;;;26.27;14.20;;;11.70;99.90;;;;;;4974575;28;20212;-79
2021/12/13 02:21:31;;;;;;;25.10;14.13;;;11.90;99.90;;;;;;4974694;28;20636;-90
2021/12/13 02:24:03;;;;;;;27.63;14.15;;;11.90;99.90;;;;;;4969066;28;20209;-82
2021/12/13 02:26:32;;;;;;;24.38;14.60;;;11.70;99.90;;;;;;4974838;28;20234;-80
2021/12/13 02:29:21;;;;;;;28.30;14.70;;;11.60;99.90;;;;;;4974850;28;20162;-83
2021/12/13 02:31:47;;;;;;;25.55;14.38;;;11.60;99.90;;;;;;4957767;28;20186;-90
2021/12/13 02:34:16;;;;;;;25.35;14.35;;;11.60;99.90;;;;;;4974727;28;20162;-90
2021/12/13 02:36:52;;;;;;;26.77;13.88;;;11.40;99.90;;;;;;4974495;28;20181;-83
2021/12/13 02:39:32;;;;;;;28.67;14.68;;;11.50;99.90;;;;;;4974942;28;20165;-89
2021/12/13 02:42:00;;;;;;;31.35;14.65;;;11.50;99.90;;;;;;4974239;28;20660;-90
2021/12/13 02:44:38;;;;;;;27.33;14.10;;;11.50;99.90;;;;;;4974330;28;20585;-89
2021/12/13 02:47:34;;;;;;;23.73;13.13;;;11.50;99.90;;;;;;4974528;28;20205;-81
2021/12/13 02:50:01;;;;;;;27.88;14.20;;;11.50;99.90;;;;;;4979797;28;20207;-88
2021/12/13 02:52:27;;;;;;;22.80;13.93;;;11.60;99.90;;;;;;4975472;28;20632;-82
2021/12/13 02:54:59;;;;;;;26.63;14.80;;;11.50;99.90;;;;;;4980273;28;20230;-81
2021/12/13 02:57:32;;;;;;;23.20;13.52;;;11.50;99.90;;;;;;4979029;28;20198;-90
2021/12/13 03:00:23;;;;;;;21.90;12.95;;;11.30;99.90;;;;;;4979575;28;20170;-83
2021/12/13 03:02:51;;;;;;;21.90;12.93;;;11.30;99.90;;;;;;4979185;28;20166;-90
2021/12/13 03:05:30;;;;;;;27.38;13.63;;;11.40;99.90;;;;;;4962059;28;20759;-81
2021/12/13 03:08:00;;;;;;;20.95;12.63;;;11.60;99.90;;;;;;4977338;28;20288;-92
2021/12/13 03:10:34;;;;;;;24.42;13.85;;;11.70;99.90;;;;;;4978408;28;20173;-87
2021/12/13 03:13:00;;;;;;;20.52;13.13;;;11.50;99.90;;;;;;4978665;28;20534;-89
2021/12/13 03:15:29;;;;;;;25.10;14.68;;;11.50;99.90;;;;;;4987573;28;20185;-78
2021/12/13 03:18:20;;;;;;;24.35;14.05;;;11.60;99.90;;;;;;4993078;28;20193;-79
2021/12/13 03:21:11;;;;;;;23.23;13.43;;;11.70;99.90;;;;;;4985947;28;20269;-78
2021/12/13 03:23:55;;;;;;;20.35;11.80;;;11.50;99.90;;;;;;4993492;28;20181;-78
2021/12/13 03:26:47;;;;;;;25.25;13.77;;;11.70;99.90;;;;;;4992992;28;20216;-82
2021/12/13 03:29:21;;;;;;;23.88;13.70;;;11.70;99.90;;;;;;4987575;28;20176;-80
2021/12/13 03:31:57;;;;;;;18.75;11.50;;;11.80;99.90;;;;;;4991457;28;20173;-80
2021/12/13 03:34:28;;;;;;;23.00;12.68;;;11.80;99.90;;;;;;4993655;28;20173;-78
2021/12/13 03:37:03;;;;;;;18.42;12.65;;;11.80;99.90;;;;;;4988725;28;20285;-78
2021/12/13 03:39:36;;;;;;;22.90;14.00;;;11.80;99.90;;;;;;4991352;28;20213;-79
2021/12/13 03:42:24;;;;;;;21.05;12.15;;;11.60;99.90;;;;;;4988486;28;20185;-90
2021/12/13 03:44:53;;;;;;;24.60;13.50;;;11.60;99.90;;;;;;4987449;28;20202;-84
2021/12/13 03:47:33;;;;;;;23.92;13.07;;;11.60;99.90;;;;;;4998201;28;20210;-78
2021/12/13 03:50:01;;;;;;;23.83;14.05;;;11.70;99.90;;;;;;4990086;28;20628;-85
2021/12/13 03:52:33;;;;;;;23.08;12.70;;;11.70;99.90;;;;;;4979262;28;20170;-89
2021/12/13 03:55:04;;;;;;;25.83;13.70;;;11.70;99.90;;;;;;4979632;28;20162;-78
2021/12/13 03:57:30;;;;;;;22.30;13.27;;;11.80;99.90;;;;;;4980311;28;20260;-88
2021/12/13 03:59:59;;;;;;;26.33;13.32;;;11.70;99.90;;;;;;4980229;28;20169;-84
2021/12/13 04:02:33;;;;;;;31.65;13.75;;;11.70;99.90;;;;;;4979529;28;20177;-84
2021/12/13 04:05:05;;;;;;;21.20;12.10;;;11.60;99.90;;;;;;4979333;28;20180;-77
2021/12/13 04:07:35;;;;;;;21.48;14.25;;;11.80;99.90;;;;;;4978175;28;20190;-79
2021/12/13 04:10:14;;;;;;;19.67;12.07;;;11.80;99.90;;;;;;4981307;28;20246;-80
2021/12/13 04:12:47;;;;;;;21.58;12.18;;;11.70;99.90;;;;;;4964549;28;20174;-78
2021/12/13 04:15:21;;;;;;;21.08;13.20;;;11.60;99.90;;;;;;4980145;28;20217;-86
2021/12/13 04:18:00;;;;;;;23.55;11.82;;;11.50;99.90;;;;;;4985364;28;20635;-88
2021/12/13 04:20:33;;;;;;;22.65;12.50;;;11.50;99.90;;;;;;4987290;28;20166;-83
2021/12/13 04:23:04;;;;;;;26.67;13.20;;;11.60;99.90;;;;;;4984230;28;20170;-85
2021/12/13 04:25:36;;;;;;;23.02;13.93;;;11.60;99.90;;;;;;4977410;28;20296;-82
2021/12/13 04:28:05;;;;;;;19.50;12.30;;;11.70;99.90;;;;;;4977270;28;20186;-87
2021/12/13 04:30:40;;;;;;;23.95;13.55;;;11.70;99.90;;;;;;4977605;28;20185;-79
2021/12/13 04:33:11;;;;;;;17.95;11.60;;;11.80;99.90;;;;;;4977922;28;20176;-83
2021/12/13 04:35:40;;;;;;;22.38;13.10;;;11.90;99.90;;;;;;4977718;28;20224;-81
2021/12/13 04:38:07;;;;;;;22.83;12.75;;;11.70;99.90;;;;;;4978079;28;20212;-81
2021/12/13 04:40:38;;;;;;;23.20;13.10;;;11.50;99.90;;;;;;4977707;28;20680;-87
2021/12/13 04:43:08;;;;;;;20.90;12.18;;;11.40;99.90;;;;;;4959504;28;20241;-79
2021/12/13 04:45:35;;;;;;;21.15;11.93;;;11.40;99.90;;;;;;4960642;28;20205;-78
2021/12/13 04:48:14;;;;;;;29.83;12.95;;;11.30;99.90;;;;;;4978487;28;20201;-88
2021/12/13 04:51:01;;;;;;;20.17;12.60;;;11.50;99.90;;;;;;4977655;28;20193;-85
2021/12/13 04:53:31;;;;;;;24.23;12.70;;;11.30;99.90;;;;;;4978094;28;20177;-78
2021/12/13 04:56:00;;;;;;;21.17;13.20;;;11.50;99.90;;;;;;4977664;28;20625;-81
2021/12/13 04:58:27;;;;;;;21.27;13.07;;;11.60;99.90;;;;;;4960612;28;20190;-78
2021/12/13 05:00:56;;;;;;;29.45;13.95;;;11.70;99.90;;;;;;4977722;28;20647;-77
2021/12/13 05:03:26;;;;;;;25.25;12.68;;;11.80;99.90;;;;;;4978006;28;20197;-78
2021/12/13 05:05:52;;;;;;;23.67;12.82;;;12.00;99.90;;;;;;4978479;28;20201;-78
2021/12/13 05:08:20;;;;;;;20.60;12.38;;;11.90;99.90;;;;;;4978693;28;20190;-83
2021/12/13 05:10:48;;;;;;;16.60;11.10;;;11.80;99.90;;;;;;4979094;28;20161;-90
2021/12/13 05:13:21;;;;;;;21.92;11.82;;;11.70;99.90;;;;;;4995805;28;20157;-79
2021/12/13 05:16:00;;;;;;;24.58;12.15;;;11.70;99.90;;;;;;4997462;28;20134;-78
2021/12/13 05:18:31;;;;;;;22.83;12.20;;;11.60;99.90;;;;;;4997094;28;20208;-86
2021/12/13 05:21:09;;;;;;;26.55;13.07;;;11.60;99.90;;;;;;4996555;28;20131;-82
2021/12/13 05:23:48;;;;;;;20.92;12.18;;;11.60;99.90;;;;;;4999388;28;20150;-80
2021/12/13 05:26:31;;;;;;;19.85;12.48;;;11.50;99.90;;;;;;4999290;28;20193;-86
2021/12/13 05:29:00;;;;;;;22.27;12.98;;;11.50;99.90;;;;;;4998299;28;20169;-84
2021/12/13 05:31:29;;;;;;;20.10;11.98;;;11.60;99.90;;;;;;4999210;28;20186;-89
2021/12/13 05:33:59;;;;;;;27.45;13.50;;;11.60;99.90;;;;;;4990738;28;20157;-85
2021/12/13 05:36:29;;;;;;;24.67;13.80;;;11.40;99.90;;;;;;4987488;28;20170;-87
2021/12/13 05:39:05;;;;;;;22.65;11.80;;;11.70;99.90;;;;;;4984673;28;20225;-85
2021/12/13 05:41:31;;;;;;;25.60;13.05;;;11.70;99.90;;;;;;4980500;28;20288;-79
2021/12/13 05:44:01;;;;;;;20.45;12.13;;;11.60;99.90;;;;;;4980421;28;20648;-82
2021/12/13 05:46:57;;;;;;;24.00;11.68;;;11.80;99.90;;;;;;4979472;28;20256;-80
2021/12/13 05:49:27;;;;;;;27.23;12.35;;;11.90;99.90;;;;;;4976806;28;20174;-82
2021/12/13 05:52:06;;;;;;;21.27;11.82;;;12.00;99.90;;;;;;4978418;28;20201;-89
2021/12/13 05:54:35;;;;;;;21.00;11.95;;;12.00;99.90;;;;;;4978618;28;20177;-79
2021/12/13 05:57:12;;;;;;;21.50;12.52;;;11.80;99.90;;;;;;4979492;28;20554;-90
2021/12/13 05:59:54;;;;;;;28.38;11.80;;;11.90;99.90;;;;;;4979422;28;20257;-82
2021/12/13 06:02:54;;;;;;;23.30;12.18;;;12.00;99.90;;;;;;4980531;28;20189;-85
2021/12/13 06:05:45;;;;;;;21.92;10.80;;;12.00;99.90;;;;;;4989871;28;20213;-80
2021/12/13 06:08:17;;;;;;;22.85;10.93;;;12.10;99.90;;;;;;4992585;28;20232;-78
2021/12/13 06:11:11;;;;;;;24.02;12.15;;;11.90;99.90;;;;;;4994946;28;20170;-79
2021/12/13 06:13:43;;;;;;;20.85;11.48;;;11.90;99.90;;;;;;4993829;28;20146;-79
2021/12/13 06:16:10;;;;;;;17.27;10.15;;;11.90;99.90;;;;;;4992017;28;20176;-79
2021/12/13 06:19:10;;;;;;;15.55;9.48;;;11.90;99.90;;;;;;4989585;28;20276;-83
2021/12/13 06:22:01;;;;;;;14.90;9.02;;;11.90;99.90;;;;;;4958067;28;20656;-79
2021/12/13 06:24:35;;;;;;;12.27;9.02;;;12.00;99.90;;;;;;4992339;28;20174;-80
2021/12/13 06:27:37;;;;;;;19.13;8.45;;;12.00;99.90;;;;;;4992842;28;20234;-79
2021/12/13 06:30:04;;;;;;;13.63;8.07;;;11.80;99.90;;;;;;4915402;29;20699;-80
2021/12/13 06:32:41;;;;;;;11.05;7.90;;;11.90;99.90;;;;;;4978870;28;20181;-80
2021/12/13 06:35:33;;;;;;;9.52;7.57;;;11.90;99.90;;;;;;4994679;28;20166;-81
2021/12/13 06:38:20;;;;;;;14.57;8.02;;;12.00;99.90;;;;;;4992981;28;20181;-82
2021/12/13 06:40:56;;;;;;;17.30;7.50;;;11.90;99.90;;;;;;4985950;28;20182;-90
2021/12/13 06:43:36;;;;;;;14.48;6.88;;;11.80;99.90;;;;;;4986338;28;20177;-85
2021/12/13 06:46:20;;;;;;;17.70;7.32;;;11.80;99.90;;;;;;4991785;28;20239;-80
2021/12/13 06:48:47;;;;;;;20.02;7.70;;;11.90;99.90;;;;;;4985647;28;20266;-80
2021/12/13 06:51:19;;;;;;;11.77;6.38;;;11.80;99.90;;;;;;4990564;28;20165;-77
2021/12/13 06:54:28;;;;;;;12.90;7.07;;;11.70;99.90;;;;;;4993608;28;20166;-78
2021/12/13 06:57:32;;;;;;;12.35;6.90;;;11.80;99.90;;;;;;4951813;28;20284;-83
2021/12/13 07:00:07;;;;;;;9.05;6.90;;;11.80;99.90;;;;;;4963254;28;20683;-83
2021/12/13 07:02:35;;;;;;;19.65;7.03;;;11.90;99.90;;;;;;4979334;28;20177;-82
2021/12/13 07:05:06;;;;;;;11.02;7.47;;;12.00;99.90;;;;;;4978565;28;20170;-78
2021/12/13 07:07:48;;;;;;;12.60;7.32;;;11.80;99.90;;;;;;4978685;28;20197;-85
2021/12/13 07:10:38;;;;;;;14.48;7.38;;;11.80;99.90;;;;;;4983013;28;20257;-86
2021/12/13 07:13:18;;;;;;;12.27;7.50;;;11.80;99.90;;;;;;4985159;28;20177;-84
2021/12/13 07:15:55;;;;;;;8.48;6.97;;;11.60;99.90;;;;;;4981955;28;20560;-78
2021/12/13 07:18:29;;;;;;;18.58;7.00;;;11.50;99.90;;;;;;4978392;28;20197;-79
2021/12/13 07:21:07;;;;;;;15.60;6.45;;;11.60;99.90;;;;;;4978336;28;20173;-81
2021/12/13 07:23:53;;;;;;;7.90;5.50;;;11.60;99.90;;;;;;4977533;28;20172;-86
2021/12/13 07:26:53;;;;;;;9.25;7.32;;;11.60;99.90;;;;;;4960164;28;20209;-81
2021/12/13 07:29:23;;;;;;;9.27;6.32;;;11.70;99.90;;;;;;4977195;28;20246;-80
2021/12/13 07:32:17;;;;;;;10.35;6.82;;;11.50;99.90;;;;;;4976933;28;20507;-86
2021/12/13 07:35:08;;;;;;;8.93;6.82;;;11.50;99.90;;;;;;4969540;28;20182;-84
2021/12/13 07:37:43;;;;;;;10.15;7.03;;;11.50;99.90;;;;;;4958781;28;20198;-77
2021/12/13 07:40:33;;;;;;;10.65;6.35;;;11.80;99.90;;;;;;4956836;28;20182;-77
2021/12/13 07:43:29;;;;;;;8.93;5.85;;;11.80;99.90;;;;;;4976319;28;20208;-78
2021/12/13 07:46:00;;;;;;;7.50;6.13;;;11.90;99.90;;;;;;4976255;28;20237;-81
2021/12/13 07:48:31;;;;;;;9.88;7.07;;;11.70;99.90;;;;;;4976456;28;20245;-79
2021/12/13 07:51:08;;;;;;;7.13;5.78;;;11.70;99.90;;;;;;4977558;28;20216;-81
2021/12/13 07:53:46;;;;;;;13.48;5.68;;;11.80;99.90;;;;;;4973093;28;20176;-83
2021/12/13 07:56:19;;;;;;;7.80;6.65;;;12.00;99.90;;;;;;4976591;28;20253;-77
2021/12/13 07:58:49;;;;;;;7.47;6.25;;;11.80;99.90;;;;;;4970180;28;20201;-87
2021/12/13 08:01:21;;;;;;;9.75;5.88;;;11.70;99.90;;;;;;4976867;28;20189;-80
2021/12/13 08:04:22;;;;;;;9.88;5.82;;;11.80;99.90;;;;;;4976601;28;20166;-79
2021/12/13 08:06:54;;;;;;;13.60;6.80;;;11.80;99.90;;;;;;4975806;28;20217;-85
2021/12/13 08:09:24;;;;;;;9.85;5.40;;;11.80;99.90;;;;;;4976305;28;20241;-85
2021/12/13 08:11:56;;;;;;;9.13;5.57;;;11.80;99.90;;;;;;4978385;28;20178;-83
2021/12/13 08:14:34;;;;;;;16.48;5.70;;;11.90;99.90;;;;;;4977988;28;20229;-87
2021/12/13 08:17:16;;;;;;;8.68;5.03;;;11.70;99.90;;;;;;4977512;28;20217;-92
2021/12/13 08:19:43;;;;;;;6.13;5.35;;;11.80;99.90;;;;;;4973380;28;20182;-86
2021/12/13 08:22:16;;;;;;;9.18;5.07;;;11.70;99.90;;;;;;4980669;28;20165;-93
2021/12/13 08:25:04;;;;;;;7.28;5.57;;;11.60;99.90;;;;;;4981643;28;20221;-79
2021/12/13 08:27:50;;;;;;;7.45;5.47;;;11.80;99.90;;;;;;4961674;28;20206;-86
2021/12/13 08:30:24;;;;;;;6.15;5.07;;;11.80;99.90;;;;;;4961335;28;21326;-83
2021/12/13 08:32:57;;;;;;;6.90;4.95;;;12.00;99.90;;;;;;4976336;28;20177;-90
2021/12/13 08:35:23;;;;;;;10.85;5.50;;;12.00;99.90;;;;;;4976736;28;20174;-82
2021/12/13 08:37:59;;;;;;;6.35;5.13;;;11.90;99.90;;;;;;4991656;28;20194;-82
2021/12/13 08:40:30;;;;;;;4.78;4.28;;;12.00;99.90;;;;;;4959248;29;20162;-81
2021/12/13 08:42:58;;;;;;;6.35;4.80;;;11.90;99.90;;;;;;4941134;28;21130;-82
2021/12/13 08:45:31;;;;;;;8.27;5.53;;;12.00;99.90;;;;;;4976963;28;20219;-81
2021/12/13 08:48:15;;;;;;;7.20;5.38;;;12.00;99.90;;;;;;4974703;28;20276;-88
2021/12/13 08:50:50;;;;;;;7.95;4.63;;;12.10;99.90;;;;;;4956299;29;20170;-92
2021/12/13 08:53:26;;;;;;;10.60;4.80;;;12.20;99.90;;;;;;4961573;28;20682;-88
2021/12/13 08:56:01;;;;;;;5.05;4.55;;;12.20;99.90;;;;;;4980160;28;20169;-91
2021/12/13 08:58:27;;;;;;;6.50;4.50;;;11.90;99.90;;;;;;4976585;28;20191;-89
2021/12/13 09:01:06;;;;;;;7.95;4.28;;;11.60;99.90;;;;;;4977008;28;20248;-87
2021/12/13 09:03:40;;;;;;;8.40;4.72;;;11.70;99.90;;;;;;4959353;28;20185;-78
2021/12/13 09:06:22;;;;;;;8.45;4.78;;;11.80;99.90;;;;;;4976036;28;20209;-83
2021/12/13 09:08:52;;;;;;;4.70;4.20;;;11.90;99.90;;;;;;4975945;28;20173;-80
2021/12/13 09:11:33;;;;;;;8.52;4.20;;;12.10;99.90;;;;;;4976304;28;20162;-88
2021/12/13 09:14:22;;;;;;;4.22;3.85;;;12.00;99.90;;;;;;4976416;28;20249;-78
2021/12/13 09:17:21;;;;;;;8.77;4.32;;;12.00;99.90;;;;;;4975609;28;20186;-88
2021/12/13 09:19:55;;;;;;;5.40;3.95;;;12.00;99.90;;;;;;4976454;28;20174;-85
2021/12/13 09:22:41;;;;;;;5.78;4.20;;;12.00;99.90;;;;;;4958170;28;20181;-84
2021/12/13 09:25:06;;;;;;;11.68;4.40;;;12.10;99.90;;;;;;4975241;28;20166;-88
2021/12/13 09:27:41;;;;;;;7.20;4.65;;;12.00;99.90;;;;;;4975097;28;20297;-83
2021/12/13 09:30:12;;;;;;;4.28;3.78;;;11.90;99.90;;;;;;4974885;28;20208;-80
2021/12/13 09:32:44;;;;;;;7.05;4.15;;;12.10;99.90;;;;;;4976480;28;20180;-81
2021/12/13 09:35:24;;;;;;;4.25;3.70;;;12.20;99.90;;;;;;4977739;28;20244;-78
2021/12/13 09:37:51;;;;;;;5.15;3.67;;;12.20;99.90;;;;;;4976664;28;20547;-79
2021/12/13 09:40:24;;;;;;;10.32;4.13;;;12.20;99.90;;;;;;4977068;28;20170;-89
2021/12/13 09:42:55;;;;;;;4.63;3.55;;;12.20;99.90;;;;;;4977795;28;20228;-86
2021/12/13 09:45:29;;;;;;;4.65;3.85;;;12.30;99.90;;;;;;4976977;28;20616;-82
2021/12/13 09:47:55;;;;;;;4.05;3.58;;;12.30;99.90;;;;;;4974265;28;20268;-78
2021/12/13 09:50:30;;;;;;;12.07;4.95;;;12.50;99.90;;;;;;4975354;28;20188;-83
2021/12/13 09:53:05;;;;;;;9.02;3.95;;;12.60;99.90;;;;;;4973841;28;20174;-82
2021/12/13 09:55:41;;;;;;;4.20;3.80;;;12.60;99.90;;;;;;4957066;28;20197;-79
2021/12/13 09:58:12;;;;;;;5.53;4.40;;;12.40;99.90;;;;;;4975491;28;20189;-81
2021/12/13 10:00:46;;;;;;;4.47;4.07;;;12.50;99.90;;;;;;4974883;28;20205;-79
2021/12/13 10:03:19;;;;;;;4.68;4.13;;;12.50;99.90;;;;;;4975670;28;20612;-86
2021/12/13 10:05:51;;;;;;;5.97;3.70;;;12.40;99.90;;;;;;4974662;28;20551;-80
2021/12/13 10:08:28;;;;;;;4.18;3.75;;;12.30;99.90;;;;;;4975047;28;20162;-77
2021/12/13 10:10:58;;;;;;;6.05;4.60;;;12.50;99.90;;;;;;4975365;28;20520;-87
2021/12/13 10:13:28;;;;;;;7.68;4.10;;;12.50;99.90;;;;;;4975242;28;20165;-78
2021/12/13 10:15:59;;;;;;;6.60;4.50;;;12.70;99.90;;;;;;4975267;28;20181;-79
2021/12/13 10:18:29;;;;;;;7.38;3.80;;;12.60;99.90;;;;;;4974650;28;20213;-85
2021/12/13 10:21:03;;;;;;;9.93;4.03;;;12.70;99.90;;;;;;4975383;28;20170;-82
2021/12/13 10:23:34;;;;;;;5.85;4.18;;;12.70;99.90;;;;;;4974788;28;20201;-87
2021/12/13 10:26:02;;;;;;;7.43;3.22;;;12.70;99.90;;;;;;4974715;28;20205;-88
2021/12/13 10:28:33;;;;;;;5.60;4.05;;;12.70;99.90;;;;;;4974995;28;20265;-88
2021/12/13 10:31:18;;;;;;;12.52;4.78;;;12.70;99.90;;;;;;4975256;28;20245;-88
2021/12/13 10:33:46;;;;;;;6.55;3.60;;;12.70;99.90;;;;;;4974775;28;20181;-77
2021/12/13 10:36:12;;;;;;;6.03;3.55;;;12.70;99.90;;;;;;4956812;28;20624;-79
2021/12/13 10:38:44;;;;;;;6.03;4.07;;;12.80;99.90;;;;;;4974553;28;20193;-81
2021/12/13 10:41:20;;;;;;;8.18;4.68;;;12.60;99.90;;;;;;4974333;28;20516;-85
2021/12/13 10:43:53;;;;;;;4.50;4.00;;;12.60;99.90;;;;;;4957127;28;20173;-82
2021/12/13 10:46:27;;;;;;;11.48;4.35;;;12.60;99.90;;;;;;4974967;28;20284;-85
2021/12/13 10:49:00;;;;;;;8.30;3.80;;;12.30;99.90;;;;;;4974659;28;20555;-82
2021/12/13 10:51:36;;;;;;;9.25;4.00;;;12.40;99.90;;;;;;4974409;28;20182;-82
2021/12/13 10:54:17;;;;;;;11.02;4.22;;;12.30;99.90;;;;;;4958364;28;20592;-82
2021/12/13 10:56:58;;;;;;;8.48;3.63;;;12.30;99.90;;;;;;4975756;28;20268;-78
2021/12/13 10:59:27;;;;;;;7.43;5.10;;;12.40;99.90;;;;;;4975338;28;20178;-86
2021/12/13 11:01:58;;;;;;;14.57;4.40;;;12.40;99.90;;;;;;4975121;28;20209;-84
2021/12/13 11:04:33;;;;;;;6.43;3.90;;;12.60;99.90;;;;;;4974701;28;20190;-81
2021/12/13 11:07:00;;;;;;;8.43;4.40;;;12.50;99.90;;;;;;4974448;28;20215;-86
2021/12/13 11:09:27;;;;;;;6.72;4.63;;;12.60;99.90;;;;;;4976335;28;20170;-81
2021/12/13 11:12:03;;;;;;;12.50;4.50;;;12.50;99.90;;;;;;4977483;28;20185;-85
2021/12/13 11:14:31;;;;;;;8.77;4.18;;;12.60;99.90;;;;;;4975941;28;20656;-78
2021/12/13 11:17:01;;;;;;;8.30;4.32;;;12.90;99.90;;;;;;4974682;28;20186;-90
2021/12/13 11:19:31;;;;;;;5.68;3.88;;;12.80;99.90;;;;;;4977377;28;20217;-77
2021/12/13 11:22:04;;;;;;;4.78;3.85;;;12.60;99.90;;;;;;4979028;28;20181;-80
2021/12/13 11:24:36;;;;;;;6.95;4.35;;;12.60;99.90;;;;;;4978924;28;20523;-86
2021/12/13 11:27:10;;;;;;;5.50;3.85;;;12.70;99.90;;;;;;4977857;28;20217;-77
2021/12/13 11:29:37;;;;;;;7.38;4.50;;;12.80;99.90;;;;;;4978360;28;20177;-81
2021/12/13 11:32:38;;;;;;;7.93;4.28;;;12.70;99.90;;;;;;4977829;28;20170;-79
2021/12/13 11:35:06;;;;;;;7.15;4.15;;;12.80;99.90;;;;;;4978073;28;20179;-79
2021/12/13 11:37:51;;;;;;;12.00;4.00;;;12.90;99.90;;;;;;4977636;28;20215;-79
2021/12/13 11:40:48;;;;;;;5.72;3.78;;;13.00;99.90;;;;;;4960842;28;20655;-83
2021/12/13 11:43:27;;;;;;;6.07;3.53;;;13.00;99.90;;;;;;4961380;28;20276;-84
2021/12/13 11:46:28;;;;;;;4.70;3.28;;;12.70;99.90;;;;;;4978751;28;20205;-80
2021/12/13 11:49:19;;;;;;;9.15;3.90;;;12.80;99.90;;;;;;4987713;28;20541;-87
2021/12/13 11:52:25;;;;;;;7.47;3.90;;;12.80;99.90;;;;;;4986518;28;20177;-79
2021/12/13 11:55:23;;;;;;;5.85;3.35;;;12.60;99.90;;;;;;4987158;28;20178;-83
2021/12/13 11:58:17;;;;;;;13.45;3.83;;;12.50;99.90;;;;;;4980586;28;20194;-86
2021/12/13 12:01:00;;;;;;;4.53;3.70;;;12.60;99.90;;;;;;4977936;28;20644;-85
2021/12/13 12:03:47;;;;;;;8.10;3.75;;;12.50;99.90;;;;;;4978443;28;20174;-82
2021/12/13 12:07:09;;;;;;;6.13;3.70;;;12.30;99.90;;;;;;4978076;28;20601;-78
2021/12/13 12:10:29;;;;;;;4.72;4.15;;;12.50;99.90;;;;;;4937532;29;20179;-77
2021/12/13 12:13:14;;;;;;;6.13;4.38;;;12.50;99.90;;;;;;4919379;29;20236;-86
2021/12/13 12:15:43;;;;;;;10.32;4.72;;;12.70;99.90;;;;;;4974517;28;20185;-79
2021/12/13 12:18:18;;;;;;;7.43;3.80;;;12.70;99.90;;;;;;4978998;28;20194;-78
2021/12/13 12:20:53;;;;;;;13.85;4.88;;;12.70;99.90;;;;;;4978608;28;20699;-79
2021/12/13 12:23:32;;;;;;;9.25;4.65;;;12.80;99.90;;;;;;4981173;28;20192;-78
2021/12/13 12:26:00;;;;;;;7.88;4.28;;;12.70;99.90;;;;;;4970688;28;20209;-78
2021/12/13 12:28:30;;;;;;;9.20;5.60;;;12.60;99.90;;;;;;4988806;28;20189;-85
2021/12/13 12:30:58;;;;;;;7.72;3.95;;;12.50;99.90;;;;;;4970967;28;20201;-83
2021/12/13 12:33:44;;;;;;;5.68;4.25;;;12.50;99.90;;;;;;4976313;28;20158;-80
2021/12/13 12:36:21;;;;;;;7.45;4.05;;;12.70;99.90;;;;;;4998541;28;20197;-82
2021/12/13 12:39:34;;;;;;;10.73;3.88;;;12.40;99.90;;;;;;4998440;28;20185;-78
2021/12/13 12:42:21;;;;;;;4.85;3.70;;;12.60;99.90;;;;;;4981856;28;20213;-85
2021/12/13 12:44:57;;;;;;;15.80;4.30;;;12.70;99.90;;;;;;4981881;28;20170;-79
2021/12/13 12:47:58;;;;;;;11.52;4.35;;;12.90;99.90;;;;;;4962979;28;20225;-80
2021/12/13 12:50:32;;;;;;;6.85;3.35;;;12.70;99.90;;;;;;4961666;28;20185;-84
2021/12/13 12:53:08;;;;;;;8.77;4.53;;;12.80;99.90;;;;;;4980147;28;20536;-82
2021/12/13 12:55:40;;;;;;;4.47;3.22;;;13.10;99.90;;;;;;4980516;28;20185;-89
2021/12/13 12:58:12;;;;;;;7.10;4.05;;;13.10;99.90;;;;;;4979515;28;20189;-80
2021/12/13 13:00:39;;;;;;;11.85;4.57;;;13.20;99.90;;;;;;4979341;28;20166;-88
2021/12/13 13:03:04;;;;;;;9.32;4.53;;;13.30;99.90;;;;;;4979398;28;20248;-88
2021/12/13 13:05:31;;;;;;;10.68;4.07;;;13.30;99.90;;;;;;4980366;28;20189;-87
2021/12/13 13:07:57;;;;;;;5.53;3.97;;;13.40;99.90;;;;;;4979390;28;20192;-88
2021/12/13 13:13:06;;;;;;;9.82;4.10;;;13.20;99.90;;;;;;4980819;28;20596;-86
2021/12/13 13:15:37;;;;;;;6.75;3.92;;;13.30;99.90;;;;;;4979817;28;20181;-81
2021/12/13 13:18:10;;;;;;;9.55;4.53;;;13.10;99.90;;;;;;4977195;28;20660;-85
2021/12/13 13:20:47;;;;;;;10.77;5.00;;;12.90;99.90;;;;;;4975969;28;20170;-78
2021/12/13 13:23:14;;;;;;;8.55;3.72;;;13.00;99.90;;;;;;4976005;28;20165;-80
2021/12/13 13:25:49;;;;;;;4.40;3.63;;;13.10;99.90;;;;;;4975161;28;20209;-85
2021/12/13 13:28:39;;;;;;;5.13;3.85;;;12.90;99.90;;;;;;4975426;28;20275;-88
2021/12/13 13:31:10;;;;;;;7.95;3.83;;;12.60;99.90;;;;;;4975339;28;20555;-84
2021/12/13 13:33:42;;;;;;;10.80;3.70;;;12.60;99.90;;;;;;4975277;28;20162;-89